createdAt,value
2022-12-18T00:04:30.910Z,-6.50
2022-12-18T00:09:39.381Z,-6.59
2022-12-18T00:14:44.882Z,-6.67
2022-12-18T00:19:46.354Z,-6.72
2022-12-18T00:24:47.858Z,-6.73
2022-12-18T00:29:49.442Z,-6.92
2022-12-18T00:34:50.858Z,-7.01
2022-12-18T00:39:52.349Z,-7.14
2022-12-18T00:44:55.060Z,-7.25
2022-12-18T00:49:56.567Z,-7.38
2022-12-18T00:55:01.796Z,-7.55
2022-12-18T01:00:07.850Z,-7.61
2022-12-18T01:05:11.985Z,-7.65
2022-12-18T01:10:14.597Z,-7.69
2022-12-18T01:15:16.788Z,-7.83
2022-12-18T01:20:18.296Z,-7.89
2022-12-18T01:25:20.721Z,-7.95
2022-12-18T01:30:22.210Z,-8.00
2022-12-18T01:35:23.745Z,-8.06
2022-12-18T01:40:25.253Z,-8.10
2022-12-18T01:45:29.994Z,-8.17
2022-12-18T01:50:42.694Z,-8.24
2022-12-18T01:55:52.598Z,-8.29
2022-12-18T02:00:55.612Z,-8.32
2022-12-18T02:06:06.254Z,-8.40
2022-12-18T02:11:20.949Z,-8.49
2022-12-18T02:16:39.917Z,-8.58
2022-12-18T02:21:54.209Z,-8.62
2022-12-18T02:27:08.539Z,-8.68
2022-12-18T02:32:15.519Z,-8.69
2022-12-18T02:37:19.618Z,-8.80
2022-12-18T02:42:23.834Z,-8.88
2022-12-18T02:47:32.183Z,-8.90
2022-12-18T02:52:42.583Z,-8.95
2022-12-18T02:58:04.185Z,-8.99
2022-12-18T03:03:25.127Z,-9.08
2022-12-18T03:08:34.063Z,-9.14
2022-12-18T03:14:05.889Z,-9.19
2022-12-18T03:19:17.424Z,-9.22
2022-12-18T03:24:21.158Z,-9.24
2022-12-18T03:29:34.611Z,-9.24
2022-12-18T03:34:40.465Z,-9.20
2022-12-18T03:39:44.258Z,-9.22
2022-12-18T03:45:02.989Z,-9.28
2022-12-18T03:50:14.612Z,-9.31
2022-12-18T03:55:22.177Z,-9.35
2022-12-18T04:00:31.894Z,-9.40
2022-12-18T04:05:43.986Z,-9.40
2022-12-18T04:10:45.979Z,-9.35
2022-12-18T04:15:47.696Z,-9.38
2022-12-18T04:20:50.813Z,-9.36
2022-12-18T04:25:53.212Z,-9.48
2022-12-18T04:31:08.155Z,-9.52
2022-12-18T04:36:10.640Z,-9.58
2022-12-18T04:41:14.321Z,-9.55
2022-12-18T04:46:17.061Z,-9.52
2022-12-18T04:51:23.324Z,-9.51
2022-12-18T04:56:27.676Z,-9.46
2022-12-18T05:01:34.368Z,-9.37
2022-12-18T05:06:36.442Z,-9.24
2022-12-18T05:11:37.919Z,-9.25
2022-12-18T05:16:39.395Z,-9.23
2022-12-18T05:21:40.919Z,-9.20
2022-12-18T05:26:42.420Z,-9.19
2022-12-18T05:31:43.924Z,-9.22
2022-12-18T05:36:46.233Z,-9.24
2022-12-18T05:41:47.684Z,-9.24
2022-12-18T05:46:49.233Z,-9.27
2022-12-18T05:51:50.716Z,-9.25
2022-12-18T05:56:52.142Z,-9.24
2022-12-18T06:01:53.732Z,-9.20
2022-12-18T06:06:55.420Z,-9.20
2022-12-18T06:11:56.938Z,-9.16
2022-12-18T06:16:58.581Z,-9.12
2022-12-18T06:22:00.143Z,-9.10
2022-12-18T06:27:01.605Z,-9.08
2022-12-18T06:32:03.188Z,-9.06
2022-12-18T06:37:04.874Z,-9.10
2022-12-18T06:42:06.366Z,-9.11
2022-12-18T06:47:07.815Z,-9.12
2022-12-18T06:52:09.526Z,-9.09
2022-12-18T06:57:10.947Z,-9.06
2022-12-18T07:02:13.767Z,-8.99
2022-12-18T07:07:15.425Z,-9.01
2022-12-18T07:12:16.855Z,-9.07
2022-12-18T07:17:18.323Z,-9.07
2022-12-18T07:22:19.826Z,-9.09
2022-12-18T07:27:21.285Z,-9.06
2022-12-18T07:32:22.739Z,-8.98
2022-12-18T07:37:24.229Z,-8.96
2022-12-18T07:42:31.619Z,-8.90
2022-12-18T07:47:36.712Z,-8.78
2022-12-18T07:52:38.227Z,-8.66
2022-12-18T07:57:50.498Z,-8.54
2022-12-18T08:02:54.295Z,-8.48
2022-12-18T08:07:56.938Z,-8.39
2022-12-18T08:13:03.140Z,-8.27
2022-12-18T08:18:11.368Z,-8.18
2022-12-18T08:23:15.559Z,-8.07
2022-12-18T08:28:17.047Z,-8.03
2022-12-18T08:33:18.518Z,-7.89
2022-12-18T08:38:20.007Z,-7.82
2022-12-18T08:43:40.562Z,-7.66
2022-12-18T08:48:42.608Z,-7.41
2022-12-18T08:53:45.404Z,-7.25
2022-12-18T08:58:47.038Z,-7.05
2022-12-18T09:03:50.317Z,-6.83
2022-12-18T09:08:51.775Z,-6.61
2022-12-18T09:13:54.873Z,-6.45
2022-12-18T09:19:00.649Z,-6.27
2022-12-18T09:24:02.424Z,-6.11
2022-12-18T09:29:04.354Z,-5.92
2022-12-18T09:34:07.509Z,-5.83
2022-12-18T09:39:09.214Z,-5.69
2022-12-18T09:44:20.391Z,-5.59
2022-12-18T09:49:27.519Z,-5.45
2022-12-18T09:54:55.305Z,-5.29
2022-12-18T10:00:04.612Z,-5.09
2022-12-18T10:05:16.515Z,-4.85
2022-12-18T10:10:33.134Z,-4.67
2022-12-18T10:15:59.263Z,-4.54
2022-12-18T10:21:20.010Z,-4.49
2022-12-18T10:26:21.629Z,-4.34
2022-12-18T10:31:25.428Z,-4.30
2022-12-18T10:36:27.170Z,-4.30
2022-12-18T10:41:29.407Z,-4.21
2022-12-18T10:46:31.483Z,-4.06
2022-12-18T10:51:38.607Z,-3.83
2022-12-18T10:56:40.417Z,-3.78
2022-12-18T11:01:47.113Z,-3.48
2022-12-18T11:07:00.663Z,-3.29
2022-12-18T11:12:16.488Z,-2.99
2022-12-18T11:17:26.727Z,-2.79
2022-12-18T11:22:31.690Z,-2.68
2022-12-18T11:27:34.133Z,-2.50
2022-12-18T11:32:43.156Z,-2.59
2022-12-18T11:37:55.270Z,-2.74
2022-12-18T11:43:22.926Z,-2.77
2022-12-18T11:48:39.923Z,-2.68
2022-12-18T11:53:42.065Z,-2.61
2022-12-18T11:59:02.449Z,-2.63
2022-12-18T12:04:26.310Z,-2.55
2022-12-18T12:09:49.793Z,-2.50
2022-12-18T12:14:58.019Z,-2.48
2022-12-18T12:20:35.919Z,-2.45
2022-12-18T12:25:58.436Z,-2.50
2022-12-18T12:31:21.668Z,-2.40
2022-12-18T12:36:41.858Z,-2.35
2022-12-18T12:42:04.642Z,-2.28
2022-12-18T12:47:18.777Z,-2.33
2022-12-18T12:52:40.821Z,-2.40
2022-12-18T12:57:51.630Z,-2.39
2022-12-18T13:03:21.281Z,-2.41
2022-12-18T13:08:26.328Z,-2.44
2022-12-18T13:13:50.630Z,-2.41
2022-12-18T13:18:55.310Z,-2.44
2022-12-18T13:23:58.520Z,-2.44
2022-12-18T13:29:03.000Z,-2.45
2022-12-18T13:34:29.542Z,-2.42
2022-12-18T13:39:36.057Z,-2.47
2022-12-18T13:44:42.621Z,-2.50
2022-12-18T13:49:45.172Z,-2.52
2022-12-18T13:54:52.366Z,-2.58
2022-12-18T13:59:54.073Z,-2.59
2022-12-18T14:04:56.494Z,-2.60
2022-12-18T14:10:18.641Z,-2.67
2022-12-18T14:15:48.510Z,-2.62
2022-12-18T14:20:53.212Z,-2.67
2022-12-18T14:25:54.953Z,-2.61
2022-12-18T14:30:57.417Z,-2.62
2022-12-18T14:36:02.222Z,-2.70
2022-12-18T14:41:12.890Z,-2.71
2022-12-18T14:46:33.698Z,-2.77
2022-12-18T14:51:36.792Z,-2.85
2022-12-18T14:56:46.209Z,-2.92
2022-12-18T15:01:49.534Z,-2.97
2022-12-18T15:07:05.128Z,-2.97
2022-12-18T15:12:20.657Z,-3.04
2022-12-18T15:17:24.226Z,-3.07
2022-12-18T15:22:33.872Z,-3.04
2022-12-18T15:27:38.654Z,-3.00
2022-12-18T15:32:43.530Z,-2.98
2022-12-18T15:37:45.820Z,-2.92
2022-12-18T15:43:07.260Z,-2.87
2022-12-18T15:48:24.585Z,-2.83
2022-12-18T15:53:31.121Z,-2.72
2022-12-18T15:58:33.707Z,-2.65
2022-12-18T16:03:35.375Z,-2.65
2022-12-18T16:08:37.010Z,-2.68
2022-12-18T16:13:39.130Z,-2.71
2022-12-18T16:18:40.788Z,-2.73
2022-12-18T16:23:42.707Z,-2.69
2022-12-18T16:28:48.417Z,-2.74
2022-12-18T16:33:50.501Z,-2.71
2022-12-18T16:38:52.161Z,-2.75
2022-12-18T16:43:55.139Z,-2.80
2022-12-18T16:48:59.343Z,-2.76
2022-12-18T16:54:05.100Z,-2.64
2022-12-18T16:59:11.960Z,-2.61
2022-12-18T17:04:13.747Z,-2.59
2022-12-18T17:09:16.483Z,-2.58
2022-12-18T17:14:20.277Z,-2.55
2022-12-18T17:19:22.746Z,-2.53
2022-12-18T17:24:24.351Z,-2.47
2022-12-18T17:29:25.880Z,-2.45
2022-12-18T17:34:28.475Z,-2.40
2022-12-18T17:39:31.480Z,-2.33
2022-12-18T17:44:34.275Z,-2.30
2022-12-18T17:49:36.066Z,-2.26
2022-12-18T17:54:39.767Z,-2.20
2022-12-18T17:59:41.514Z,-2.17
2022-12-18T18:04:42.964Z,-2.09
2022-12-18T18:09:44.493Z,-2.05
2022-12-18T18:14:45.958Z,-2.01
2022-12-18T18:19:49.657Z,-1.97
2022-12-18T18:24:51.798Z,-1.93
2022-12-18T18:29:53.341Z,-1.90
2022-12-18T18:34:54.859Z,-1.88
2022-12-18T18:39:56.874Z,-1.90
2022-12-18T18:44:58.398Z,-1.90
2022-12-18T18:50:00.080Z,-1.87
2022-12-18T18:55:13.425Z,-1.87
2022-12-18T19:00:23.474Z,-1.87
2022-12-18T19:05:28.120Z,-1.86
2022-12-18T19:10:31.099Z,-1.83
2022-12-18T19:15:34.220Z,-1.79
2022-12-18T19:20:35.936Z,-1.79
2022-12-18T19:25:42.540Z,-1.74
2022-12-18T19:30:44.731Z,-1.72
2022-12-18T19:35:46.421Z,-1.75
2022-12-18T19:40:48.526Z,-1.73
2022-12-18T19:45:55.118Z,-1.71
2022-12-18T19:50:56.816Z,-1.73
2022-12-18T19:55:58.446Z,-1.70
2022-12-18T20:00:59.970Z,-1.69
2022-12-18T20:06:18.809Z,-1.67
2022-12-18T20:11:20.321Z,-1.64
2022-12-18T20:16:23.346Z,-1.68
2022-12-18T20:21:25.263Z,-1.67
2022-12-18T20:26:26.956Z,-1.69
2022-12-18T20:31:28.460Z,-1.68
2022-12-18T20:36:30.643Z,-1.66
2022-12-18T20:41:37.907Z,-1.71
2022-12-18T20:46:40.413Z,-1.72
2022-12-18T20:51:41.940Z,-1.65
2022-12-18T20:56:43.441Z,-1.67
2022-12-18T21:01:48.365Z,-1.64
2022-12-18T21:06:55.738Z,-1.67
2022-12-18T21:12:22.353Z,-1.69
2022-12-18T21:17:23.992Z,-1.66
2022-12-18T21:22:28.227Z,-1.67
2022-12-18T21:27:29.698Z,-1.69
2022-12-18T21:32:33.441Z,-1.64
2022-12-18T21:37:35.579Z,-1.56
2022-12-18T21:42:55.531Z,-1.54
2022-12-18T21:47:57.468Z,-1.54
2022-12-18T21:52:58.983Z,-1.57
2022-12-18T21:58:00.450Z,-1.53
2022-12-18T22:03:17.219Z,-1.50
2022-12-18T22:08:19.621Z,-1.47
2022-12-18T22:13:21.126Z,-1.43
2022-12-18T22:18:22.793Z,-1.39
2022-12-18T22:23:24.315Z,-1.38
2022-12-18T22:28:44.402Z,-1.33
2022-12-18T22:33:46.159Z,-1.37
2022-12-18T22:38:48.479Z,-1.28
2022-12-18T22:43:50.079Z,-1.26
2022-12-18T22:48:51.575Z,-1.26
2022-12-18T22:53:53.129Z,-1.29
2022-12-18T22:58:56.499Z,-1.21
2022-12-18T23:04:00.510Z,-1.17
2022-12-18T23:09:01.956Z,-1.23
2022-12-18T23:14:03.510Z,-1.23
2022-12-18T23:19:05.738Z,-1.18
2022-12-18T23:24:07.563Z,-1.17
2022-12-18T23:29:09.107Z,-1.16
2022-12-18T23:34:12.739Z,-1.17
2022-12-18T23:39:21.602Z,-1.14
2022-12-18T23:44:31.706Z,-1.15
2022-12-18T23:49:33.152Z,-1.09
2022-12-18T23:54:35.102Z,-1.13
2022-12-18T23:59:36.602Z,-1.11
